Time;durP1;ratioP1;P1;durP2;ratioP2;P2;SDS_P1;SDS_P2;PMS_P1;PMS_P2;Temp;Humidity;BMP_temperature;BMP_pressure;BME280_temperature;BME280_humidity;BME280_pressure;Samples;Min_cycle;Max_cycle;Signal;HPM_P1;HPM_P2
2022/08/31 00:04:45;;;;;;;1.58;0.30;;;14.60;99.90;;;;;;5039903;28;20043;-70
2022/08/31 00:07:10;;;;;;;1.25;0.30;;;14.60;99.90;;;;;;5025021;28;20048;-70
2022/08/31 00:09:36;;;;;;;2.28;0.20;;;14.70;99.90;;;;;;5044659;28;20123;-70
2022/08/31 00:12:02;;;;;;;2.42;0.47;;;14.70;99.90;;;;;;5025620;28;20063;-70
2022/08/31 00:14:28;;;;;;;2.92;0.40;;;14.60;99.90;;;;;;5023011;28;20110;-70
2022/08/31 00:16:54;;;;;;;0.55;0.20;;;14.60;99.90;;;;;;4995601;28;20044;-70
2022/08/31 00:19:19;;;;;;;1.17;0.20;;;14.50;99.90;;;;;;5021745;28;20041;-70
2022/08/31 00:21:45;;;;;;;3.30;0.20;;;14.60;99.90;;;;;;5039832;28;20052;-69
2022/08/31 00:24:13;;;;;;;2.60;0.20;;;14.50;99.90;;;;;;5023319;28;20063;-69
2022/08/31 00:26:39;;;;;;;0.82;0.10;;;14.50;99.90;;;;;;5028426;28;20412;-69
2022/08/31 00:29:06;;;;;;;0.55;0.20;;;14.50;99.90;;;;;;5021746;28;20053;-69
2022/08/31 00:31:31;;;;;;;1.70;0.13;;;14.40;99.90;;;;;;5040406;28;20041;-69
2022/08/31 00:33:57;;;;;;;3.67;0.30;;;14.30;99.90;;;;;;5022565;28;20176;-69
2022/08/31 00:36:25;;;;;;;0.90;0.13;;;14.30;99.90;;;;;;5028575;28;20099;-70
2022/08/31 00:38:52;;;;;;;1.45;0.30;;;14.20;99.90;;;;;;5016973;28;20566;-69
2022/08/31 00:41:21;;;;;;;1.45;0.10;;;14.30;99.90;;;;;;5020433;28;20439;-69
2022/08/31 00:43:51;;;;;;;1.25;0.30;;;14.20;99.90;;;;;;5032286;28;20049;-69
2022/08/31 00:46:29;;;;;;;2.55;0.35;;;14.20;99.90;;;;;;5026807;28;20330;-70
2022/08/31 00:49:21;;;;;;;1.27;0.25;;;14.10;99.90;;;;;;5033270;28;20041;-69
2022/08/31 00:52:02;;;;;;;0.75;0.17;;;14.10;99.90;;;;;;5041023;28;20052;-69
2022/08/31 00:54:33;;;;;;;0.50;0.23;;;14.10;99.90;;;;;;5039113;28;20048;-69
2022/08/31 00:56:59;;;;;;;1.45;0.30;;;14.00;99.90;;;;;;5006347;28;20309;-70
2022/08/31 00:59:26;;;;;;;2.20;0.40;;;14.00;99.90;;;;;;5024263;28;20045;-69
2022/08/31 01:01:52;;;;;;;6.90;0.47;;;13.90;99.90;;;;;;5025503;28;20441;-69
2022/08/31 01:04:18;;;;;;;9.73;0.70;;;13.80;99.90;;;;;;5038254;28;20431;-69
2022/08/31 01:06:45;;;;;;;3.10;0.22;;;13.80;99.90;;;;;;5023114;28;20061;-70
2022/08/31 01:09:12;;;;;;;1.15;0.28;;;13.80;99.90;;;;;;5037486;28;20090;-68
2022/08/31 01:11:40;;;;;;;1.10;0.20;;;13.70;99.90;;;;;;5039113;28;20476;-69
2022/08/31 01:14:07;;;;;;;0.73;0.30;;;13.60;99.90;;;;;;5038928;28;20565;-69
2022/08/31 01:16:41;;;;;;;3.70;0.20;;;13.60;99.90;;;;;;5022443;28;20401;-69
2022/08/31 01:19:31;;;;;;;0.85;0.20;;;13.60;99.90;;;;;;5038299;28;20073;-69
2022/08/31 01:22:14;;;;;;;0.80;0.13;;;13.60;99.90;;;;;;5041188;28;20136;-69
2022/08/31 01:24:44;;;;;;;0.70;0.22;;;13.60;99.90;;;;;;5042674;28;20048;-68
2022/08/31 01:27:12;;;;;;;4.10;0.25;;;13.60;99.90;;;;;;5024396;28;20049;-69
2022/08/31 01:29:38;;;;;;;2.70;0.30;;;13.50;99.90;;;;;;5039708;28;20037;-69
2022/08/31 01:32:04;;;;;;;0.40;0.20;;;13.50;99.90;;;;;;5039265;28;20048;-67
2022/08/31 01:34:31;;;;;;;1.27;0.30;;;13.50;99.90;;;;;;5040829;28;20080;-69
2022/08/31 01:36:57;;;;;;;1.38;0.20;;;13.50;99.90;;;;;;5026035;28;20041;-69
2022/08/31 01:39:22;;;;;;;1.63;0.40;;;13.40;99.90;;;;;;5036125;28;20052;-69
2022/08/31 01:41:48;;;;;;;0.63;0.22;;;13.40;99.90;;;;;;5040552;28;20044;-69
2022/08/31 01:44:18;;;;;;;0.40;0.10;;;13.40;99.90;;;;;;5040403;28;20065;-69
2022/08/31 01:46:44;;;;;;;1.60;0.30;;;13.30;99.90;;;;;;5009498;28;20512;-70
2022/08/31 01:49:11;;;;;;;0.88;0.20;;;13.30;99.90;;;;;;5039511;28;20045;-69
2022/08/31 01:51:38;;;;;;;0.88;0.17;;;13.30;99.90;;;;;;5039666;28;20033;-69
2022/08/31 01:54:04;;;;;;;1.00;0.30;;;13.20;99.90;;;;;;5024185;28;20563;-69
2022/08/31 01:56:37;;;;;;;0.65;0.20;;;13.20;99.90;;;;;;5028178;28;20337;-69
2022/08/31 01:59:05;;;;;;;1.80;0.30;;;13.20;99.90;;;;;;5036231;28;20507;-69
2022/08/31 02:01:33;;;;;;;0.95;0.30;;;13.20;99.90;;;;;;5038346;28;20103;-69
2022/08/31 02:03:59;;;;;;;0.50;0.30;;;13.20;99.90;;;;;;5021601;28;20485;-69
2022/08/31 02:06:25;;;;;;;0.50;0.17;;;13.10;99.90;;;;;;5031806;28;20881;-69
2022/08/31 02:08:51;;;;;;;0.40;0.20;;;13.10;99.90;;;;;;5020294;28;20053;-69
2022/08/31 02:11:17;;;;;;;0.45;0.17;;;13.00;99.90;;;;;;5025270;28;20056;-69
2022/08/31 02:13:43;;;;;;;0.30;0.20;;;13.00;99.90;;;;;;5022636;28;20041;-68
2022/08/31 02:16:09;;;;;;;0.70;0.40;;;12.90;99.90;;;;;;5039540;28;20412;-70
2022/08/31 02:18:35;;;;;;;1.20;0.32;;;12.90;99.90;;;;;;5015457;28;20041;-69
2022/08/31 02:21:01;;;;;;;0.55;0.20;;;12.90;99.90;;;;;;5026494;28;20384;-68
2022/08/31 02:23:27;;;;;;;1.08;0.30;;;12.90;99.90;;;;;;5025560;28;20500;-69
2022/08/31 02:25:54;;;;;;;0.95;0.20;;;12.80;99.90;;;;;;5026833;28;20072;-69
2022/08/31 02:28:20;;;;;;;2.47;0.30;;;12.90;99.90;;;;;;5012447;28;20060;-68
2022/08/31 02:30:47;;;;;;;1.40;0.20;;;12.80;99.90;;;;;;5025508;28;20381;-69
2022/08/31 02:33:13;;;;;;;0.57;0.25;;;12.80;99.90;;;;;;5046375;28;20494;-69
2022/08/31 02:35:40;;;;;;;0.60;0.30;;;12.70;99.90;;;;;;5045348;28;20585;-69
2022/08/31 02:38:07;;;;;;;0.75;0.38;;;12.70;99.90;;;;;;5007206;28;20065;-69
2022/08/31 02:40:37;;;;;;;4.15;0.30;;;12.70;99.90;;;;;;5023348;28;20045;-70
2022/08/31 02:43:04;;;;;;;1.27;0.30;;;12.80;99.90;;;;;;5009970;28;20049;-69
2022/08/31 02:45:30;;;;;;;1.25;0.30;;;12.70;99.90;;;;;;5040102;28;20485;-69
2022/08/31 02:47:55;;;;;;;0.73;0.30;;;12.60;99.90;;;;;;5024741;28;20052;-69
2022/08/31 02:50:21;;;;;;;2.15;0.32;;;12.60;99.90;;;;;;5043030;28;20048;-69
2022/08/31 02:52:48;;;;;;;0.88;0.30;;;12.60;99.90;;;;;;5043365;28;20041;-69
2022/08/31 02:55:14;;;;;;;0.98;0.30;;;12.50;99.90;;;;;;5044585;28;20067;-68
2022/08/31 02:57:40;;;;;;;0.75;0.25;;;12.50;99.90;;;;;;5027152;28;20120;-69
2022/08/31 03:00:07;;;;;;;1.45;0.25;;;12.50;99.90;;;;;;5042502;28;20060;-69
2022/08/31 03:02:33;;;;;;;2.78;0.50;;;12.40;99.90;;;;;;5045533;28;20041;-68
2022/08/31 03:05:06;;;;;;;0.80;0.32;;;12.40;99.90;;;;;;5041220;28;20116;-69
2022/08/31 03:07:36;;;;;;;0.70;0.30;;;12.40;99.90;;;;;;5025513;28;20574;-68
2022/08/31 03:10:04;;;;;;;1.98;0.40;;;12.40;99.90;;;;;;5039071;28;20551;-69
2022/08/31 03:12:30;;;;;;;0.85;0.20;;;12.40;99.90;;;;;;5037951;28;20072;-68
2022/08/31 03:14:55;;;;;;;1.00;0.38;;;12.30;99.90;;;;;;5043430;28;20162;-69
2022/08/31 03:17:21;;;;;;;0.70;0.20;;;12.30;99.90;;;;;;5023564;28;20392;-69
2022/08/31 03:19:47;;;;;;;1.73;0.30;;;12.20;99.90;;;;;;5019804;28;20053;-69
2022/08/31 03:22:13;;;;;;;2.20;0.30;;;12.20;99.90;;;;;;5001421;28;20468;-68
2022/08/31 03:24:39;;;;;;;0.82;0.30;;;12.10;99.90;;;;;;5042582;28;20072;-69
2022/08/31 03:27:05;;;;;;;1.17;0.40;;;12.10;99.90;;;;;;5028920;28;20626;-67
2022/08/31 03:29:30;;;;;;;1.90;0.52;;;12.00;99.90;;;;;;5043617;28;20053;-69
2022/08/31 03:31:56;;;;;;;1.77;0.40;;;12.00;99.90;;;;;;5042965;28;20241;-69
2022/08/31 03:34:22;;;;;;;0.82;0.20;;;11.90;99.90;;;;;;5040208;28;20053;-69
2022/08/31 03:36:47;;;;;;;1.52;0.40;;;11.80;99.90;;;;;;5029811;28;20132;-69
2022/08/31 03:39:13;;;;;;;1.13;0.35;;;11.80;99.90;;;;;;5039078;28;20148;-69
2022/08/31 03:41:39;;;;;;;1.23;0.28;;;11.80;99.90;;;;;;5043059;28;20113;-69
2022/08/31 03:44:04;;;;;;;2.70;0.60;;;11.70;99.90;;;;;;5035000;28;20117;-69
2022/08/31 03:46:32;;;;;;;0.90;0.40;;;11.70;99.90;;;;;;5010214;28;20505;-70
2022/08/31 03:49:02;;;;;;;0.85;0.50;;;11.60;99.90;;;;;;5006769;28;20045;-68
2022/08/31 03:51:28;;;;;;;1.77;0.38;;;11.70;99.90;;;;;;5004286;28;20042;-69
2022/08/31 03:53:54;;;;;;;0.65;0.32;;;11.70;99.90;;;;;;4994945;28;20058;-69
2022/08/31 03:56:20;;;;;;;0.77;0.52;;;11.60;99.90;;;;;;4991289;28;20113;-69
2022/08/31 03:58:46;;;;;;;0.68;0.40;;;11.60;99.90;;;;;;4997097;28;20555;-69
2022/08/31 04:01:13;;;;;;;1.20;0.45;;;11.60;99.90;;;;;;5001142;28;20050;-69
2022/08/31 04:03:39;;;;;;;2.70;0.68;;;11.60;99.90;;;;;;5003738;28;20054;-69
2022/08/31 04:06:09;;;;;;;1.85;0.40;;;11.60;99.90;;;;;;5001018;28;20042;-69
2022/08/31 04:08:35;;;;;;;1.67;0.70;;;11.60;99.90;;;;;;4991673;28;20068;-69
2022/08/31 04:11:06;;;;;;;1.15;0.52;;;11.60;99.90;;;;;;4998232;28;20494;-69
2022/08/31 04:13:33;;;;;;;0.70;0.40;;;11.60;99.90;;;;;;5000773;28;20038;-69
2022/08/31 04:15:59;;;;;;;2.83;0.55;;;11.70;99.90;;;;;;5004064;28;20034;-69
2022/08/31 04:18:25;;;;;;;1.65;0.50;;;11.70;99.90;;;;;;4982522;28;20125;-69
2022/08/31 04:20:50;;;;;;;0.95;0.57;;;11.70;99.90;;;;;;5001621;28;20456;-69
2022/08/31 04:23:16;;;;;;;1.10;0.60;;;11.70;99.90;;;;;;5004328;28;20627;-69
2022/08/31 04:25:42;;;;;;;1.33;0.50;;;11.70;99.90;;;;;;5003412;28;20129;-68
2022/08/31 04:28:09;;;;;;;1.30;0.50;;;11.70;99.90;;;;;;4983734;28;20049;-69
2022/08/31 04:30:42;;;;;;;2.45;0.70;;;11.80;99.90;;;;;;4999909;28;20038;-69
2022/08/31 04:33:08;;;;;;;1.15;0.73;;;11.80;99.90;;;;;;5006413;28;20049;-69
2022/08/31 04:35:34;;;;;;;7.35;1.00;;;11.80;99.90;;;;;;5024133;28;20124;-69
2022/08/31 04:37:59;;;;;;;1.50;0.80;;;11.80;99.90;;;;;;5006864;28;20516;-69
2022/08/31 04:40:25;;;;;;;3.10;0.80;;;11.80;99.90;;;;;;5020795;28;20327;-68
2022/08/31 04:42:51;;;;;;;2.05;0.73;;;11.80;99.90;;;;;;5019386;28;20172;-68
2022/08/31 04:45:17;;;;;;;1.15;0.70;;;11.80;99.90;;;;;;5039873;28;20061;-68
2022/08/31 04:47:43;;;;;;;2.03;0.75;;;11.80;99.90;;;;;;5007811;28;20045;-69
2022/08/31 04:50:10;;;;;;;19.27;1.80;;;11.80;99.90;;;;;;5020747;28;20049;-68
2022/08/31 04:52:36;;;;;;;1.98;0.80;;;11.80;99.90;;;;;;5040484;28;20046;-69
2022/08/31 04:55:03;;;;;;;1.88;0.70;;;11.80;99.90;;;;;;5021526;28;20160;-69
2022/08/31 04:57:30;;;;;;;1.20;0.60;;;11.80;99.90;;;;;;5025015;28;20041;-68
2022/08/31 04:59:56;;;;;;;1.17;0.60;;;11.90;99.90;;;;;;5041506;28;20041;-69
2022/08/31 05:02:22;;;;;;;2.58;0.80;;;11.90;99.90;;;;;;5021452;28;20045;-68
2022/08/31 05:04:47;;;;;;;2.85;0.90;;;11.90;99.90;;;;;;5039058;28;20464;-69
2022/08/31 05:07:13;;;;;;;1.40;0.80;;;11.90;99.90;;;;;;5024205;28;20037;-68
2022/08/31 05:09:38;;;;;;;0.98;0.70;;;12.00;99.90;;;;;;5041166;28;20087;-69
2022/08/31 05:12:04;;;;;;;1.80;0.85;;;12.00;99.90;;;;;;5043518;28;20048;-66
2022/08/31 05:14:30;;;;;;;1.15;0.90;;;12.00;99.90;;;;;;5045096;28;20127;-69
2022/08/31 05:16:56;;;;;;;1.95;1.10;;;12.00;99.90;;;;;;5028810;28;20462;-72
2022/08/31 05:19:21;;;;;;;1.42;1.00;;;12.00;99.90;;;;;;5038960;28;20162;-72
2022/08/31 05:21:47;;;;;;;1.63;1.08;;;12.10;99.90;;;;;;5021181;28;20045;-71
2022/08/31 05:24:20;;;;;;;2.17;1.10;;;12.10;99.90;;;;;;5005016;28;20072;-71
2022/08/31 05:26:49;;;;;;;2.17;0.98;;;12.10;99.90;;;;;;5024926;28;20614;-70
2022/08/31 05:29:20;;;;;;;3.20;1.10;;;12.20;99.90;;;;;;5020352;28;20037;-71
2022/08/31 05:31:47;;;;;;;1.50;0.75;;;12.20;99.90;;;;;;5037515;28;20041;-70
2022/08/31 05:34:14;;;;;;;1.13;0.88;;;12.30;99.90;;;;;;5043586;28;20049;-69
2022/08/31 05:36:41;;;;;;;1.40;0.82;;;12.40;99.90;;;;;;5028585;28;20045;-70
2022/08/31 05:39:08;;;;;;;5.07;1.02;;;12.40;99.90;;;;;;5039599;28;20048;-70
2022/08/31 05:41:34;;;;;;;1.60;0.80;;;12.40;99.90;;;;;;5024355;28;20535;-70
2022/08/31 05:44:02;;;;;;;2.92;1.60;;;12.50;99.90;;;;;;5045201;28;20052;-69
2022/08/31 05:46:29;;;;;;;2.15;1.10;;;12.60;99.90;;;;;;5030939;28;21262;-70
2022/08/31 05:48:55;;;;;;;2.63;1.08;;;12.70;99.90;;;;;;5020285;28;20377;-70
2022/08/31 05:51:21;;;;;;;1.85;1.23;;;12.80;99.90;;;;;;5040422;28;20103;-69
2022/08/31 05:53:48;;;;;;;1.92;0.98;;;12.90;99.90;;;;;;5025205;28;20575;-70
2022/08/31 05:56:20;;;;;;;2.83;0.95;;;12.90;99.90;;;;;;5031805;28;20118;-71
2022/08/31 05:58:47;;;;;;;1.55;0.95;;;13.00;99.90;;;;;;5038887;28;20049;-69
2022/08/31 06:01:17;;;;;;;1.58;1.10;;;13.10;99.90;;;;;;5021144;28;20404;-70
2022/08/31 06:03:43;;;;;;;3.80;1.30;;;13.20;99.90;;;;;;5042946;28;20477;-70
2022/08/31 06:06:09;;;;;;;1.40;1.02;;;13.40;99.90;;;;;;5004981;28;20967;-72
2022/08/31 06:08:36;;;;;;;1.83;1.17;;;13.60;99.90;;;;;;5035926;28;20132;-70
2022/08/31 06:11:02;;;;;;;2.95;1.00;;;13.80;99.90;;;;;;5009416;28;20114;-71
2022/08/31 06:13:28;;;;;;;1.58;0.95;;;14.00;99.90;;;;;;5009314;28;21170;-70
2022/08/31 06:15:58;;;;;;;1.67;0.85;;;14.20;99.90;;;;;;5045500;28;20056;-71
2022/08/31 06:18:24;;;;;;;3.85;1.10;;;14.40;99.90;;;;;;5030943;28;20445;-70
2022/08/31 06:20:59;;;;;;;3.05;1.10;;;14.60;99.90;;;;;;5027990;28;20044;-71
2022/08/31 06:23:25;;;;;;;1.92;0.98;;;14.60;99.90;;;;;;5028613;28;20032;-71
2022/08/31 06:25:50;;;;;;;2.30;0.77;;;14.90;99.90;;;;;;5044914;28;20052;-71
2022/08/31 06:28:16;;;;;;;1.50;0.90;;;15.00;99.90;;;;;;5009002;28;20464;-71
2022/08/31 06:30:41;;;;;;;2.85;0.80;;;15.20;99.90;;;;;;5029711;28;20053;-71
2022/08/31 06:33:07;;;;;;;3.88;1.00;;;15.50;99.90;;;;;;5021426;28;20076;-72
2022/08/31 06:35:37;;;;;;;2.88;0.65;;;15.60;99.90;;;;;;5046806;28;20052;-71
2022/08/31 06:38:02;;;;;;;1.63;0.80;;;15.70;99.90;;;;;;5027884;28;20060;-70
2022/08/31 06:40:28;;;;;;;2.08;0.77;;;15.70;99.90;;;;;;5032294;28;20492;-71
2022/08/31 06:42:54;;;;;;;2.75;0.60;;;15.90;99.90;;;;;;5040213;28;20682;-71
2022/08/31 06:45:20;;;;;;;1.42;0.80;;;16.00;99.90;;;;;;5021914;28;20225;-72
2022/08/31 06:47:46;;;;;;;11.57;1.30;;;16.10;99.90;;;;;;5008647;28;20060;-73
2022/08/31 06:50:12;;;;;;;1.73;0.30;;;16.10;99.90;;;;;;5022835;28;20376;-72
2022/08/31 06:52:38;;;;;;;0.90;0.45;;;16.20;99.90;;;;;;5020203;28;20180;-72
2022/08/31 06:55:04;;;;;;;0.90;0.40;;;16.40;99.90;;;;;;5025493;28;20041;-72
2022/08/31 06:57:29;;;;;;;1.00;0.40;;;16.40;99.90;;;;;;5006658;28;20037;-71
2022/08/31 06:59:55;;;;;;;0.65;0.40;;;16.40;99.90;;;;;;5022892;28;20041;-72
2022/08/31 07:02:21;;;;;;;8.95;1.33;;;16.50;99.90;;;;;;5020918;28;20050;-72
2022/08/31 07:04:46;;;;;;;0.45;0.30;;;16.60;99.90;;;;;;5023777;28;20143;-72
2022/08/31 07:07:12;;;;;;;2.45;0.45;;;16.70;99.90;;;;;;5007627;28;20063;-72
2022/08/31 07:09:39;;;;;;;3.28;0.50;;;16.80;99.90;;;;;;5020735;28;20493;-72
2022/08/31 07:12:06;;;;;;;1.25;0.28;;;16.90;99.90;;;;;;5023202;28;20056;-71
2022/08/31 07:14:33;;;;;;;1.00;0.30;;;16.90;99.90;;;;;;5022876;28;20077;-72
2022/08/31 07:17:01;;;;;;;2.25;0.43;;;17.00;99.90;;;;;;5004703;28;20271;-72
2022/08/31 07:19:28;;;;;;;3.50;0.38;;;17.00;99.90;;;;;;5023003;28;20045;-72
2022/08/31 07:21:56;;;;;;;1.05;0.20;;;17.20;99.90;;;;;;5024069;28;20136;-72
2022/08/31 07:24:29;;;;;;;1.17;0.20;;;17.20;99.90;;;;;;5023075;28;20041;-72
2022/08/31 07:27:17;;;;;;;2.17;0.30;;;17.20;99.90;;;;;;5003836;28;20172;-72
2022/08/31 07:29:43;;;;;;;0.88;0.25;;;17.20;99.90;;;;;;5035985;28;20046;-72
2022/08/31 07:32:11;;;;;;;0.90;0.20;;;17.40;99.90;;;;;;5024726;28;20338;-71
2022/08/31 07:34:37;;;;;;;2.10;0.32;;;17.40;99.90;;;;;;5024487;28;20048;-72
2022/08/31 07:42:45;;;;;;;2.25;0.40;;;17.60;99.90;;;;;;5022454;28;20090;-72
2022/08/31 07:45:23;;;;;;;10.32;0.75;;;17.70;99.90;;;;;;5042172;28;20063;-72
2022/08/31 07:47:53;;;;;;;2.35;0.30;;;17.60;99.90;;;;;;5029664;28;20378;-72
2022/08/31 07:50:20;;;;;;;0.57;0.20;;;17.60;99.90;;;;;;5024386;28;20418;-71
2022/08/31 07:52:52;;;;;;;1.20;0.10;;;17.50;99.90;;;;;;5022190;28;20503;-72
2022/08/31 07:55:20;;;;;;;1.92;0.22;;;17.60;99.90;;;;;;5026023;28;20052;-71
2022/08/31 07:57:46;;;;;;;3.60;0.30;;;17.60;99.90;;;;;;5007157;28;20041;-71
2022/08/31 08:00:18;;;;;;;2.72;0.40;;;17.80;99.90;;;;;;5022825;28;20496;-72
2022/08/31 08:02:46;;;;;;;2.75;0.20;;;17.80;99.90;;;;;;5020088;28;20470;-71
2022/08/31 08:05:21;;;;;;;2.85;0.40;;;17.90;99.90;;;;;;5042563;28;20037;-72
2022/08/31 08:07:52;;;;;;;1.48;0.32;;;17.70;99.90;;;;;;5025141;28;20053;-72
2022/08/31 08:10:20;;;;;;;1.65;0.20;;;17.70;99.90;;;;;;5040142;28;20108;-72
2022/08/31 08:12:55;;;;;;;1.58;0.30;;;17.70;99.90;;;;;;5018406;28;20052;-72
2022/08/31 08:15:20;;;;;;;1.67;0.30;;;17.70;99.90;;;;;;5043750;28;20073;-72
2022/08/31 08:17:46;;;;;;;1.23;0.35;;;17.70;99.90;;;;;;5008815;28;20084;-72
2022/08/31 08:20:12;;;;;;;2.50;0.40;;;17.80;99.90;;;;;;5021617;28;20045;-72
2022/08/31 08:22:39;;;;;;;0.98;0.38;;;17.90;99.90;;;;;;5019590;28;20072;-72
2022/08/31 08:25:05;;;;;;;2.25;0.30;;;17.90;99.90;;;;;;5041798;28;20450;-72
2022/08/31 08:27:32;;;;;;;1.75;0.40;;;17.90;99.90;;;;;;5030180;28;20044;-72
2022/08/31 08:29:58;;;;;;;1.90;0.30;;;17.90;99.90;;;;;;5045663;28;20466;-72
2022/08/31 08:32:24;;;;;;;1.98;0.40;;;18.10;99.90;;;;;;5022954;28;20536;-72
2022/08/31 08:34:50;;;;;;;1.08;0.30;;;18.20;99.90;;;;;;5027121;28;20111;-72
2022/08/31 08:37:16;;;;;;;1.20;0.30;;;18.20;99.90;;;;;;5026292;28;20499;-72
2022/08/31 08:39:42;;;;;;;1.23;0.20;;;18.30;99.90;;;;;;5025244;28;20033;-73
2022/08/31 08:42:11;;;;;;;1.08;0.30;;;18.30;99.90;;;;;;5026950;28;20059;-71
2022/08/31 08:44:38;;;;;;;1.50;0.28;;;18.40;99.90;;;;;;5023729;28;20437;-72
2022/08/31 08:47:13;;;;;;;3.67;0.38;;;18.40;99.90;;;;;;5009370;28;20394;-70
2022/08/31 08:49:54;;;;;;;1.90;0.32;;;18.40;99.90;;;;;;5022577;28;20033;-72
2022/08/31 08:52:29;;;;;;;2.97;0.40;;;18.50;99.90;;;;;;5040366;28;20041;-71
2022/08/31 08:54:59;;;;;;;2.38;0.40;;;18.60;99.90;;;;;;5023849;28;20053;-72
2022/08/31 08:57:37;;;;;;;1.67;0.30;;;18.80;99.90;;;;;;5026697;28;20131;-72
2022/08/31 09:00:18;;;;;;;3.90;0.30;;;18.80;99.90;;;;;;5043092;28;20680;-72
2022/08/31 09:03:20;;;;;;;2.65;0.50;;;18.80;99.90;;;;;;5022412;28;20143;-72
2022/08/31 09:06:13;;;;;;;3.67;0.30;;;18.90;99.90;;;;;;5026361;28;20049;-72
2022/08/31 09:08:50;;;;;;;1.25;0.45;;;19.00;99.90;;;;;;5032689;28;20754;-72
2022/08/31 09:11:19;;;;;;;1.20;0.50;;;19.20;99.90;;;;;;5019392;28;20527;-72
2022/08/31 09:14:09;;;;;;;2.28;0.35;;;19.10;99.90;;;;;;5017931;28;20091;-72
2022/08/31 09:16:47;;;;;;;1.50;0.50;;;19.00;99.90;;;;;;4955862;28;20045;-72
2022/08/31 09:19:16;;;;;;;2.60;0.32;;;19.00;99.90;;;;;;5039383;28;20055;-72
2022/08/31 09:21:50;;;;;;;2.53;0.40;;;18.90;99.90;;;;;;5042385;28;20041;-72
2022/08/31 09:24:21;;;;;;;0.90;0.30;;;19.10;99.90;;;;;;5038199;28;20037;-72
2022/08/31 09:26:50;;;;;;;;;;;19.20;99.90;;;;;;5026594;28;20125;-73
2022/08/31 09:29:25;;;;;;;0.75;0.30;;;19.20;99.90;;;;;;5023027;28;19921;-74
2022/08/31 09:32:05;;;;;;;1.77;0.30;;;19.20;99.90;;;;;;5042514;28;20135;-72
2022/08/31 09:34:36;;;;;;;3.97;0.30;;;19.30;99.90;;;;;;5039949;28;20411;-72
2022/08/31 09:37:22;;;;;;;2.03;0.28;;;19.50;99.90;;;;;;5009900;28;20060;-72
2022/08/31 09:39:51;;;;;;;1.85;0.30;;;19.70;99.90;;;;;;5024162;28;20083;-72
2022/08/31 09:42:30;;;;;;;3.03;0.32;;;19.80;99.90;;;;;;5024148;28;20079;-72
2022/08/31 09:45:02;;;;;;;1.85;0.20;;;19.60;99.90;;;;;;5026194;28;20052;-72
2022/08/31 09:47:37;;;;;;;1.08;0.20;;;19.50;99.90;;;;;;5024727;28;20488;-71
2022/08/31 09:50:09;;;;;;;1.25;0.22;;;19.70;99.90;;;;;;5020604;28;20048;-72
2022/08/31 09:55:26;;;;;;;3.78;0.20;;;19.60;99.90;;;;;;5043029;28;20056;-72
2022/08/31 09:58:01;;;;;;;3.13;0.20;;;19.50;99.90;;;;;;5026116;28;20122;-72
2022/08/31 10:00:38;;;;;;;1.17;0.20;;;19.30;99.90;;;;;;5024026;28;20045;-72
2022/08/31 10:03:23;;;;;;;1.13;0.20;;;19.40;99.90;;;;;;5039712;28;20048;-71
2022/08/31 10:05:50;;;;;;;3.30;0.30;;;19.50;99.90;;;;;;5041313;28;20060;-72
2022/08/31 10:08:42;;;;;;;2.67;0.30;;;19.40;99.90;;;;;;5024205;28;20048;-72
2022/08/31 10:11:12;;;;;;;;;;;19.30;99.90;;;;;;5042039;28;20154;-72
2022/08/31 10:13:43;;;;;;;1.05;0.20;;;19.50;99.90;;;;;;5037159;28;19920;-72
2022/08/31 10:16:24;;;;;;;4.68;0.17;;;19.60;99.90;;;;;;5017083;28;20073;-73
2022/08/31 10:19:31;;;;;;;1.33;0.30;;;19.80;99.90;;;;;;5017125;28;20041;-73
2022/08/31 10:22:05;;;;;;;2.45;0.30;;;20.00;99.90;;;;;;4959062;28;20060;-72
2022/08/31 10:24:44;;;;;;;1.30;0.25;;;19.80;99.90;;;;;;5005036;28;20404;-72
2022/08/31 10:27:43;;;;;;;3.15;0.30;;;20.10;99.90;;;;;;5027789;28;20056;-71
2022/08/31 10:30:30;;;;;;;3.30;0.40;;;20.20;99.90;;;;;;5025593;28;20443;-71
2022/08/31 10:33:18;;;;;;;0.68;0.20;;;20.30;99.90;;;;;;5042492;28;20525;-71
2022/08/31 10:35:59;;;;;;;0.38;0.10;;;20.10;99.90;;;;;;5024063;28;20140;-72
2022/08/31 10:38:37;;;;;;;0.83;0.20;;;20.20;99.90;;;;;;5031180;28;20044;-71
2022/08/31 10:41:03;;;;;;;0.90;0.30;;;20.20;99.90;;;;;;5021936;28;20052;-70
2022/08/31 10:43:43;;;;;;;1.23;0.30;;;20.20;99.90;;;;;;5022536;28;20420;-72
2022/08/31 10:46:09;;;;;;;3.35;0.40;;;20.40;99.90;;;;;;5039262;28;20048;-72
2022/08/31 10:48:39;;;;;;;1.00;0.20;;;20.40;99.90;;;;;;5032453;28;20519;-71
2022/08/31 10:51:21;;;;;;;1.75;0.25;;;20.40;99.90;;;;;;5022848;28;20559;-71
2022/08/31 10:54:10;;;;;;;1.08;0.30;;;20.40;99.90;;;;;;5041785;28;20056;-72
2022/08/31 10:57:06;;;;;;;2.05;0.20;;;20.40;99.90;;;;;;5011853;28;20362;-71
2022/08/31 10:59:53;;;;;;;0.60;0.10;;;20.50;99.90;;;;;;5011398;28;20720;-71
2022/08/31 11:02:33;;;;;;;1.88;0.30;;;20.70;99.90;;;;;;5021616;28;20041;-72
2022/08/31 11:05:37;;;;;;;1.15;0.28;;;20.70;99.90;;;;;;5039531;28;20136;-71
2022/08/31 11:08:28;;;;;;;1.58;0.30;;;20.70;99.90;;;;;;5010077;28;20106;-71
2022/08/31 11:10:56;;;;;;;0.70;0.20;;;20.70;99.90;;;;;;5010048;28;20045;-72
2022/08/31 11:13:40;;;;;;;2.72;0.30;;;20.70;99.90;;;;;;5023989;28;20473;-72
2022/08/31 11:16:15;;;;;;;1.40;0.22;;;20.80;99.90;;;;;;5022967;28;20546;-72
2022/08/31 11:18:50;;;;;;;0.73;0.20;;;20.80;99.90;;;;;;5020092;28;20076;-71
2022/08/31 11:21:33;;;;;;;2.63;0.20;;;20.70;99.90;;;;;;5024073;28;20119;-71
2022/08/31 11:24:27;;;;;;;1.08;0.20;;;20.70;99.90;;;;;;5040369;28;20071;-71
2022/08/31 11:27:10;;;;;;;0.88;0.20;;;20.80;99.90;;;;;;5028215;28;20508;-73
2022/08/31 11:29:57;;;;;;;3.13;0.20;;;20.80;99.90;;;;;;5042596;28;20109;-72
2022/08/31 11:32:38;;;;;;;1.00;0.20;;;20.80;99.90;;;;;;5042162;28;20033;-72
2022/08/31 11:35:08;;;;;;;0.38;0.10;;;20.80;99.90;;;;;;5027718;28;20057;-71
2022/08/31 11:37:50;;;;;;;1.15;0.20;;;20.80;99.90;;;;;;5009443;28;20079;-71
2022/08/31 11:40:40;;;;;;;0.55;0.20;;;20.60;99.90;;;;;;5025077;28;20057;-72
2022/08/31 11:43:13;;;;;;;0.77;0.20;;;20.70;99.90;;;;;;5022135;28;20057;-72
2022/08/31 11:45:41;;;;;;;0.63;0.10;;;20.80;99.90;;;;;;5041429;28;20059;-72
2022/08/31 11:48:27;;;;;;;0.75;0.20;;;20.70;99.90;;;;;;5025564;28;20048;-71
2022/08/31 11:50:53;;;;;;;1.30;0.20;;;20.70;99.90;;;;;;5024921;28;20051;-71
2022/08/31 11:53:43;;;;;;;2.55;0.28;;;20.80;99.90;;;;;;5004838;28;20049;-71
2022/08/31 11:56:10;;;;;;;1.90;0.10;;;20.80;99.90;;;;;;5034883;28;20180;-72
2022/08/31 11:58:38;;;;;;;1.75;0.20;;;20.90;99.90;;;;;;5016562;28;20048;-71
2022/08/31 12:01:10;;;;;;;2.15;0.10;;;20.80;99.90;;;;;;5040118;28;20049;-71
2022/08/31 12:03:49;;;;;;;0.30;0.10;;;20.80;99.90;;;;;;5041624;28;20527;-71
2022/08/31 12:06:24;;;;;;;0.55;0.10;;;20.80;99.90;;;;;;5013927;28;20123;-72
2022/08/31 12:08:56;;;;;;;0.82;0.13;;;20.70;99.90;;;;;;5021605;28;20489;-72
2022/08/31 12:11:36;;;;;;;2.15;0.10;;;20.80;99.90;;;;;;5039786;28;20052;-71
2022/08/31 12:14:21;;;;;;;4.07;0.40;;;20.80;99.90;;;;;;5023216;28;20049;-73
2022/08/31 12:17:08;;;;;;;2.78;0.20;;;20.80;99.90;;;;;;5010886;28;20115;-73
2022/08/31 12:19:59;;;;;;;0.40;0.10;;;20.90;99.90;;;;;;5022738;28;20049;-72
2022/08/31 12:25:51;;;;;;;1.70;0.50;;;21.20;99.90;;;;;;5045219;28;20187;-72
2022/08/31 12:28:42;;;;;;;0.47;0.28;;;21.30;99.90;;;;;;5024072;28;20076;-72
2022/08/31 12:31:14;;;;;;;0.95;0.20;;;21.30;99.50;;;;;;5043053;28;20090;-73
2022/08/31 12:33:55;;;;;;;2.33;0.20;;;21.40;99.90;;;;;;5039790;28;20040;-71
2022/08/31 12:36:27;;;;;;;3.83;0.40;;;21.30;99.70;;;;;;5027721;28;20547;-74
2022/08/31 12:39:19;;;;;;;0.70;0.20;;;21.50;99.10;;;;;;5038940;28;20488;-71
2022/08/31 12:41:54;;;;;;;1.38;0.40;;;21.30;98.20;;;;;;5037959;28;20099;-72
2022/08/31 12:44:21;;;;;;;7.65;1.02;;;21.30;98.50;;;;;;5018115;28;20139;-71
2022/08/31 12:47:38;;;;;;;2.08;0.45;;;21.20;99.90;;;;;;5028180;28;20190;-71
2022/08/31 12:50:17;;;;;;;2.15;0.40;;;21.20;99.00;;;;;;5040898;28;20045;-71
2022/08/31 12:53:24;;;;;;;1.75;0.50;;;21.20;99.90;;;;;;5026031;28;20048;-71
2022/08/31 12:56:05;;;;;;;1.67;0.30;;;21.30;99.90;;;;;;5023182;28;20094;-72
2022/08/31 12:58:56;;;;;;;0.93;0.47;;;21.40;99.90;;;;;;5010101;28;20041;-71
2022/08/31 13:01:24;;;;;;;;;;;21.30;99.90;;;;;;5037829;28;20049;-71
2022/08/31 13:03:55;;;;;;;2.85;0.40;;;21.30;99.90;;;;;;5041411;28;19925;-71
2022/08/31 13:06:29;;;;;;;1.95;0.25;;;21.20;99.90;;;;;;5025284;28;20041;-71
2022/08/31 13:08:57;;;;;;;3.40;0.30;;;21.40;99.90;;;;;;5039990;28;20415;-71
2022/08/31 13:11:41;;;;;;;3.38;0.40;;;21.40;99.90;;;;;;5023563;28;20492;-70
2022/08/31 13:14:12;;;;;;;2.17;0.30;;;21.10;99.90;;;;;;5022020;28;20056;-70
2022/08/31 13:16:43;;;;;;;1.67;0.30;;;21.10;99.90;;;;;;5026673;28;20045;-71
2022/08/31 13:19:24;;;;;;;2.78;0.28;;;21.30;99.90;;;;;;5039975;28;20045;-70
2022/08/31 13:21:56;;;;;;;2.25;0.20;;;21.20;99.90;;;;;;5039672;28;20092;-70
2022/08/31 13:24:33;;;;;;;1.75;0.30;;;21.10;99.90;;;;;;5040466;28;20056;-70